createdAt,value
2018-07-31T00:01:10.610Z,23.80
2018-07-31T00:06:11.274Z,23.70
2018-07-31T00:08:39.700Z,23.70
2018-07-31T00:11:08.276Z,23.70
2018-07-31T00:13:44.572Z,23.70
2018-07-31T00:23:55.345Z,23.70
2018-07-31T00:28:52.334Z,23.70
2018-07-31T00:31:36.799Z,23.70
2018-07-31T00:34:05.826Z,23.70
2018-07-31T00:39:02.331Z,23.50
2018-07-31T00:41:36.659Z,23.40
2018-07-31T00:44:05.046Z,23.30
2018-07-31T00:49:01.420Z,23.20
2018-07-31T00:51:29.852Z,23.10
2018-07-31T00:53:58.181Z,23.00
2018-07-31T00:56:26.646Z,22.90
2018-07-31T00:58:54.837Z,22.90
2018-07-31T01:03:55.403Z,22.70
2018-07-31T01:08:56.416Z,22.50
2018-07-31T01:11:24.919Z,22.50
2018-07-31T01:18:49.490Z,22.40
2018-07-31T01:26:16.250Z,22.60
2018-07-31T01:28:44.518Z,22.70
2018-07-31T01:31:20.188Z,22.80
2018-07-31T01:33:48.582Z,22.90
2018-07-31T01:36:16.854Z,23.00
2018-07-31T01:38:45.082Z,23.00
2018-07-31T01:43:41.780Z,22.90
2018-07-31T01:46:10.083Z,22.90
2018-07-31T01:48:38.362Z,22.90
2018-07-31T01:51:06.360Z,22.80
2018-07-31T01:56:02.970Z,22.70
2018-07-31T02:00:59.339Z,22.50
2018-07-31T02:03:27.665Z,22.40
2018-07-31T02:05:56.051Z,22.30
2018-07-31T02:08:24.657Z,22.20
2018-07-31T02:18:17.436Z,21.80
2018-07-31T02:20:45.823Z,21.80
2018-07-31T02:23:14.221Z,21.70
2018-07-31T02:30:43.310Z,21.50
2018-07-31T02:33:11.627Z,21.50
2018-07-31T02:35:39.903Z,21.40
2018-07-31T02:38:08.178Z,21.40
2018-07-31T02:40:36.615Z,21.30
2018-07-31T02:43:05.466Z,21.30
2018-07-31T02:45:35.015Z,21.30
2018-07-31T02:48:03.543Z,21.30
2018-07-31T02:50:32.143Z,21.20
2018-07-31T02:53:00.435Z,21.10
2018-07-31T02:55:29.884Z,21.10
2018-07-31T02:57:58.286Z,21.10
2018-07-31T03:00:26.556Z,21.00
2018-07-31T03:02:54.979Z,21.00
2018-07-31T03:05:25.625Z,21.00
2018-07-31T03:07:54.011Z,20.90
2018-07-31T03:10:22.508Z,20.90
2018-07-31T03:12:50.792Z,20.80
2018-07-31T03:15:19.335Z,20.80
2018-07-31T03:17:47.737Z,20.80
2018-07-31T03:20:16.117Z,20.80
2018-07-31T03:22:44.427Z,20.70
2018-07-31T03:25:12.691Z,20.60
2018-07-31T03:27:41.628Z,20.60
2018-07-31T03:32:38.339Z,20.50
2018-07-31T03:35:07.220Z,20.50
2018-07-31T03:37:35.644Z,20.50
2018-07-31T03:40:04.012Z,20.50
2018-07-31T03:42:32.440Z,20.40
2018-07-31T03:45:01.112Z,20.50
2018-07-31T03:47:29.416Z,20.50
2018-07-31T03:49:57.948Z,20.50
2018-07-31T03:52:26.548Z,20.50
2018-07-31T03:54:59.534Z,20.40
2018-07-31T03:57:28.045Z,20.50
2018-07-31T04:02:24.629Z,20.50
2018-07-31T04:04:53.149Z,20.60
2018-07-31T04:07:21.556Z,20.60
2018-07-31T04:09:49.895Z,20.60
2018-07-31T04:12:18.409Z,20.70
2018-07-31T04:14:46.964Z,20.70
2018-07-31T04:17:15.473Z,20.80
2018-07-31T04:19:43.845Z,20.80
2018-07-31T04:24:41.666Z,20.90
2018-07-31T04:29:39.208Z,21.00
2018-07-31T04:32:07.580Z,21.10
2018-07-31T04:37:14.511Z,21.40
2018-07-31T04:39:42.917Z,21.80
2018-07-31T04:42:11.314Z,22.20
2018-07-31T04:44:41.672Z,22.90
2018-07-31T04:47:10.052Z,23.70
2018-07-31T04:49:38.452Z,24.50
2018-07-31T04:52:07.031Z,25.40
2018-07-31T04:54:35.460Z,26.10
2018-07-31T04:57:03.861Z,26.80
2018-07-31T04:59:32.248Z,27.50
2018-07-31T05:04:28.820Z,28.80
2018-07-31T05:06:58.278Z,29.40
2018-07-31T05:09:26.683Z,30.00
2018-07-31T05:11:55.284Z,30.60
2018-07-31T05:14:23.656Z,31.10
2018-07-31T05:16:51.930Z,31.60
2018-07-31T05:19:20.167Z,32.10
2018-07-31T05:24:16.562Z,33.10
2018-07-31T05:29:13.863Z,33.90
2018-07-31T05:34:10.476Z,34.80
2018-07-31T05:36:38.946Z,35.30
2018-07-31T05:39:09.208Z,35.60
2018-07-31T05:44:08.058Z,36.30
2018-07-31T05:46:36.432Z,36.80
2018-07-31T05:49:04.961Z,37.20
2018-07-31T05:51:33.902Z,37.70
2018-07-31T05:54:02.558Z,38.20
2018-07-31T05:56:30.882Z,38.60
2018-07-31T05:58:59.180Z,39.00
2018-07-31T06:01:27.675Z,39.40
2018-07-31T06:03:56.807Z,39.80
2018-07-31T06:06:25.089Z,40.30
2018-07-31T06:08:53.604Z,40.80
2018-07-31T06:11:22.394Z,41.30
2018-07-31T06:13:50.880Z,41.70
2018-07-31T06:16:19.396Z,42.10
2018-07-31T06:21:15.751Z,42.30
2018-07-31T06:23:43.897Z,42.60
2018-07-31T06:26:12.299Z,43.20
2018-07-31T06:28:42.102Z,43.90
2018-07-31T06:31:10.723Z,44.10
2018-07-31T06:33:39.186Z,44.20
2018-07-31T06:36:10.780Z,44.10
2018-07-31T06:41:07.501Z,44.20
2018-07-31T06:43:35.948Z,44.50
2018-07-31T06:46:06.430Z,44.90
2018-07-31T06:48:34.524Z,45.40
2018-07-31T06:53:31.223Z,46.00
2018-07-31T06:58:28.022Z,46.90
2018-07-31T07:05:52.495Z,47.90
2018-07-31T07:08:21.131Z,48.60
2018-07-31T07:10:49.487Z,49.20
2018-07-31T07:13:17.923Z,49.50
2018-07-31T07:15:47.679Z,50.00
2018-07-31T07:18:15.920Z,50.40
2018-07-31T07:20:44.350Z,50.70
2018-07-31T07:23:12.616Z,50.90
2018-07-31T07:25:40.723Z,50.80
2018-07-31T07:30:37.429Z,50.90
2018-07-31T07:33:06.028Z,50.50
2018-07-31T07:38:02.611Z,50.00
2018-07-31T07:47:55.302Z,50.10
2018-07-31T07:50:23.928Z,50.40
2018-07-31T07:52:52.627Z,50.70
2018-07-31T07:55:21.115Z,50.70
2018-07-31T08:00:18.211Z,50.60
2018-07-31T08:02:46.404Z,50.50
2018-07-31T08:05:14.834Z,50.30
2018-07-31T08:07:43.221Z,50.60
2018-07-31T08:10:12.542Z,50.50
2018-07-31T08:12:40.961Z,50.50
2018-07-31T08:15:09.466Z,50.70
2018-07-31T08:17:37.919Z,50.80
2018-07-31T08:20:06.787Z,50.50
2018-07-31T08:22:35.453Z,49.60
2018-07-31T08:25:04.129Z,48.90
2018-07-31T08:27:32.740Z,48.30
2018-07-31T08:30:01.251Z,47.90
2018-07-31T08:32:33.301Z,47.30
2018-07-31T08:35:01.857Z,46.60
2018-07-31T08:37:30.461Z,45.60
2018-07-31T08:39:58.760Z,44.10
2018-07-31T08:44:55.354Z,41.20
2018-07-31T08:47:23.754Z,40.10
2018-07-31T08:49:52.133Z,39.30
2018-07-31T08:52:20.515Z,38.50
2018-07-31T08:54:48.838Z,38.00
2018-07-31T08:59:45.535Z,37.10
2018-07-31T09:04:47.084Z,36.40
2018-07-31T09:07:15.779Z,36.20
2018-07-31T09:09:44.850Z,36.20
2018-07-31T09:14:41.578Z,35.80
2018-07-31T09:17:10.603Z,35.70
2018-07-31T09:19:39.099Z,35.60
2018-07-31T09:22:07.895Z,35.50
2018-07-31T09:24:36.651Z,35.40
2018-07-31T09:27:05.114Z,35.40
2018-07-31T09:29:34.010Z,35.50
2018-07-31T09:34:34.929Z,35.80
2018-07-31T09:37:03.560Z,35.60
2018-07-31T09:39:32.127Z,35.50
2018-07-31T09:42:00.922Z,35.40
2018-07-31T09:44:30.109Z,35.60
2018-07-31T09:46:58.838Z,35.50
2018-07-31T09:49:27.131Z,35.50
2018-07-31T09:51:55.962Z,35.50
2018-07-31T09:54:24.434Z,35.60
2018-07-31T09:56:53.879Z,35.60
2018-07-31T09:59:22.592Z,35.60
2018-07-31T10:01:51.219Z,35.80
2018-07-31T10:04:20.550Z,35.90
2018-07-31T10:06:49.634Z,36.00
2018-07-31T10:09:18.365Z,36.10
2018-07-31T10:11:46.922Z,36.00
2018-07-31T10:14:15.764Z,36.10
2018-07-31T10:16:44.321Z,36.20
2018-07-31T10:19:12.771Z,36.20
2018-07-31T10:21:41.239Z,36.10
2018-07-31T10:26:37.522Z,35.90
2018-07-31T10:29:05.926Z,35.90
2018-07-31T10:31:34.413Z,35.90
2018-07-31T10:34:02.944Z,35.90
2018-07-31T10:36:31.434Z,35.90
2018-07-31T10:38:59.955Z,35.70
2018-07-31T10:41:29.047Z,35.70
2018-07-31T10:46:25.668Z,35.60
2018-07-31T10:48:54.064Z,35.70
2018-07-31T10:51:22.565Z,35.70
2018-07-31T10:53:50.956Z,35.80
2018-07-31T11:01:16.055Z,35.90
2018-07-31T11:03:44.459Z,36.10
2018-07-31T11:06:13.075Z,36.20
2018-07-31T11:08:41.775Z,36.20
2018-07-31T11:11:10.260Z,36.20
2018-07-31T11:13:38.570Z,35.90
2018-07-31T11:16:06.967Z,35.70
2018-07-31T11:18:35.273Z,35.40
2018-07-31T11:21:04.279Z,35.30
2018-07-31T11:23:32.677Z,35.10
2018-07-31T11:26:01.093Z,34.90
2018-07-31T11:28:29.662Z,34.70
2018-07-31T11:30:59.010Z,34.60
2018-07-31T11:33:27.322Z,34.50
2018-07-31T11:35:56.003Z,34.50
2018-07-31T11:38:24.643Z,34.50
2018-07-31T11:40:53.200Z,34.40
2018-07-31T11:45:49.813Z,34.00
2018-07-31T11:48:18.291Z,33.70
2018-07-31T11:50:46.688Z,33.50
2018-07-31T11:55:43.497Z,33.10
2018-07-31T12:00:40.316Z,32.80
2018-07-31T12:03:08.587Z,32.80
2018-07-31T12:05:36.999Z,32.70
2018-07-31T12:10:33.719Z,32.50
2018-07-31T12:13:02.923Z,32.40
2018-07-31T12:15:31.336Z,32.30
2018-07-31T12:18:00.722Z,32.20
2018-07-31T12:20:29.349Z,32.00
2018-07-31T12:22:57.841Z,31.70
2018-07-31T12:25:26.339Z,31.70
2018-07-31T12:30:23.101Z,31.70
2018-07-31T12:32:51.506Z,31.70
2018-07-31T12:35:20.064Z,31.70
2018-07-31T12:37:49.324Z,31.70
2018-07-31T12:40:17.760Z,31.60
2018-07-31T12:42:45.934Z,31.70
2018-07-31T12:45:14.278Z,31.80
2018-07-31T12:47:42.549Z,31.80
2018-07-31T12:52:39.149Z,31.70
2018-07-31T13:00:04.281Z,31.80
2018-07-31T13:02:32.758Z,31.80
2018-07-31T13:07:29.136Z,31.80
2018-07-31T13:12:25.942Z,31.70
2018-07-31T13:17:22.545Z,31.90
2018-07-31T13:19:50.829Z,31.90
2018-07-31T13:24:47.539Z,32.10
2018-07-31T13:27:15.973Z,32.10
2018-07-31T13:29:44.762Z,32.10
2018-07-31T13:32:13.257Z,32.10
2018-07-31T13:34:41.660Z,32.00
2018-07-31T13:37:10.260Z,32.00
2018-07-31T13:39:38.663Z,32.10
2018-07-31T13:42:07.234Z,32.00
2018-07-31T13:44:35.632Z,32.00
2018-07-31T13:52:00.678Z,31.90
2018-07-31T13:54:29.205Z,31.90
2018-07-31T13:56:57.556Z,31.80
2018-07-31T13:59:25.746Z,31.70
2018-07-31T14:01:54.048Z,31.70
2018-07-31T14:04:22.568Z,31.70
2018-07-31T14:06:50.830Z,31.70
2018-07-31T14:11:47.528Z,31.80
2018-07-31T14:16:44.353Z,31.90
2018-07-31T14:19:12.632Z,32.00
2018-07-31T14:21:41.024Z,32.10
2018-07-31T14:31:33.929Z,32.60
2018-07-31T14:34:02.323Z,32.60
2018-07-31T14:36:30.513Z,32.70
2018-07-31T14:38:58.797Z,32.80
2018-07-31T14:51:19.368Z,33.10
2018-07-31T14:53:47.780Z,33.20
2018-07-31T14:56:16.077Z,33.10
2018-07-31T14:58:44.554Z,33.10
2018-07-31T15:01:12.982Z,33.00
2018-07-31T15:03:41.368Z,33.00
2018-07-31T15:08:38.664Z,32.90
2018-07-31T15:11:08.336Z,33.00
2018-07-31T15:16:04.472Z,33.10
2018-07-31T15:18:32.903Z,33.30
2018-07-31T15:21:01.380Z,33.50
2018-07-31T15:25:58.159Z,33.70
2018-07-31T15:28:26.486Z,33.70
2018-07-31T15:43:19.647Z,33.90
2018-07-31T15:45:47.881Z,33.90
2018-07-31T15:48:16.086Z,33.80
2018-07-31T15:50:44.350Z,33.70
2018-07-31T15:53:12.648Z,33.60
2018-07-31T15:55:40.944Z,33.60
2018-07-31T15:58:09.561Z,33.50
2018-07-31T16:00:38.038Z,33.50
2018-07-31T16:08:03.019Z,33.20
2018-07-31T16:10:31.746Z,33.10
2018-07-31T16:15:28.343Z,33.00
2018-07-31T16:22:53.405Z,32.90
2018-07-31T16:25:21.509Z,32.80
2018-07-31T16:27:49.940Z,32.80
2018-07-31T16:32:46.535Z,32.60
2018-07-31T16:35:15.004Z,32.50
2018-07-31T16:37:43.571Z,32.50
2018-07-31T16:40:12.666Z,32.40
2018-07-31T16:42:41.051Z,32.40
2018-07-31T16:47:38.243Z,32.30
2018-07-31T16:52:35.981Z,32.20
2018-07-31T16:55:04.394Z,32.10
2018-07-31T16:57:32.752Z,32.00
2018-07-31T17:00:00.969Z,31.90
2018-07-31T17:04:57.666Z,31.80
2018-07-31T17:09:54.367Z,31.70
2018-07-31T17:12:22.723Z,31.60
2018-07-31T17:14:56.972Z,31.60
2018-07-31T17:17:26.127Z,31.60
2018-07-31T17:19:54.588Z,31.50
2018-07-31T17:22:22.926Z,31.50
2018-07-31T17:24:51.443Z,31.40
2018-07-31T17:27:19.691Z,31.40
2018-07-31T17:29:48.204Z,31.30
2018-07-31T17:32:16.974Z,31.30
2018-07-31T17:34:46.859Z,31.20
2018-07-31T17:37:15.629Z,31.10
2018-07-31T17:39:44.883Z,31.00
2018-07-31T17:42:17.089Z,30.90
2018-07-31T17:44:45.593Z,30.90
2018-07-31T17:47:14.007Z,30.80
2018-07-31T17:49:42.279Z,30.70
2018-07-31T17:52:10.329Z,30.60
2018-07-31T17:54:39.045Z,30.50
2018-07-31T17:57:07.562Z,30.40
2018-07-31T18:02:07.042Z,30.20
2018-07-31T18:04:35.542Z,30.10
2018-07-31T18:07:04.147Z,30.00
2018-07-31T18:09:32.735Z,29.80
2018-07-31T18:12:00.989Z,29.70
2018-07-31T18:14:29.776Z,29.50
2018-07-31T18:16:58.726Z,29.40
2018-07-31T18:19:27.346Z,29.20
2018-07-31T18:21:57.570Z,29.10
2018-07-31T18:24:26.324Z,28.90
2018-07-31T18:26:54.811Z,28.70
2018-07-31T18:29:30.508Z,28.60
2018-07-31T18:31:59.306Z,28.40
2018-07-31T18:34:27.873Z,28.20
2018-07-31T18:36:57.217Z,28.10
2018-07-31T18:39:26.528Z,27.90
2018-07-31T18:41:55.039Z,27.80
2018-07-31T18:44:25.329Z,27.70
2018-07-31T18:46:53.766Z,27.50
2018-07-31T18:49:26.082Z,27.40
2018-07-31T18:51:54.948Z,27.30
2018-07-31T18:54:23.533Z,27.20
2018-07-31T18:56:52.079Z,27.00
2018-07-31T18:59:24.363Z,26.90
2018-07-31T19:01:52.890Z,26.80
2018-07-31T19:04:22.326Z,26.70
2018-07-31T19:06:50.935Z,26.60
2018-07-31T19:09:23.267Z,26.50
2018-07-31T19:11:52.677Z,26.40
2018-07-31T19:14:21.197Z,26.30
2018-07-31T19:16:49.683Z,26.20
2018-07-31T19:19:18.432Z,26.10
2018-07-31T19:21:47.824Z,26.10
2018-07-31T19:26:44.436Z,25.90
2018-07-31T19:29:12.998Z,25.80
2018-07-31T19:31:48.829Z,25.70
2018-07-31T19:34:17.299Z,25.60
2018-07-31T19:36:45.907Z,25.60
2018-07-31T19:39:14.907Z,25.50
2018-07-31T19:44:12.838Z,25.30
2018-07-31T19:46:42.055Z,25.20
2018-07-31T19:49:13.888Z,25.20
2018-07-31T19:51:42.738Z,25.10
2018-07-31T19:54:11.045Z,25.10
2018-07-31T19:56:39.340Z,25.00
2018-07-31T19:59:07.947Z,25.00
2018-07-31T20:01:36.465Z,24.90
2018-07-31T20:04:05.076Z,24.90
2018-07-31T20:06:33.430Z,24.90
2018-07-31T20:11:35.965Z,24.80
2018-07-31T20:16:33.633Z,24.60
2018-07-31T20:19:02.912Z,24.60
2018-07-31T20:21:32.215Z,24.50
2018-07-31T20:26:29.251Z,24.40
2018-07-31T20:29:00.276Z,24.30
2018-07-31T20:31:29.001Z,24.20
2018-07-31T20:33:57.492Z,24.20
2018-07-31T20:36:26.148Z,24.20
2018-07-31T20:38:54.946Z,24.10
2018-07-31T20:41:23.690Z,24.00
2018-07-31T20:43:52.131Z,24.00
2018-07-31T20:46:21.745Z,23.90
2018-07-31T20:51:18.441Z,23.80
2018-07-31T20:53:49.814Z,23.70
2018-07-31T20:58:46.410Z,23.60
2018-07-31T21:01:15.328Z,23.60
2018-07-31T21:03:43.839Z,23.60
2018-07-31T21:06:12.354Z,23.50
2018-07-31T21:08:41.035Z,23.50
2018-07-31T21:11:09.620Z,23.50
2018-07-31T21:13:38.145Z,23.50
2018-07-31T21:16:06.643Z,23.50
2018-07-31T21:18:41.012Z,23.40
2018-07-31T21:21:09.474Z,23.40
2018-07-31T21:23:37.883Z,23.30
2018-07-31T21:26:06.804Z,23.30
2018-07-31T21:28:39.127Z,23.20
2018-07-31T21:31:07.463Z,23.20
2018-07-31T21:33:35.899Z,23.10
2018-07-31T21:36:05.133Z,23.10
2018-07-31T21:41:02.208Z,23.00
2018-07-31T21:43:31.531Z,23.00
2018-07-31T21:46:00.226Z,22.90
2018-07-31T21:48:29.629Z,22.90
2018-07-31T21:50:57.957Z,22.90
2018-07-31T21:53:26.364Z,22.80
2018-07-31T21:55:54.837Z,22.80
2018-07-31T22:03:24.932Z,22.60
2018-07-31T22:08:21.423Z,22.50
2018-07-31T22:10:50.273Z,22.50
2018-07-31T22:13:18.858Z,22.50
2018-07-31T22:15:47.250Z,22.50
2018-07-31T22:18:15.620Z,22.40
2018-07-31T22:20:44.333Z,22.40
2018-07-31T22:23:12.628Z,22.40
2018-07-31T22:25:40.931Z,22.30
2018-07-31T22:28:09.247Z,22.30
2018-07-31T22:33:05.914Z,22.90
2018-07-31T22:35:34.343Z,23.20
2018-07-31T22:42:59.033Z,24.00
2018-07-31T22:45:27.437Z,24.20
2018-07-31T22:47:55.670Z,24.30
2018-07-31T22:50:25.473Z,24.30
2018-07-31T22:52:53.950Z,24.10
2018-07-31T22:55:22.343Z,24.00
2018-07-31T22:57:50.914Z,24.00
2018-07-31T23:00:22.953Z,23.90
2018-07-31T23:02:51.577Z,23.80
2018-07-31T23:05:20.142Z,23.70
2018-07-31T23:07:50.710Z,23.60
2018-07-31T23:10:19.980Z,23.40
2018-07-31T23:12:49.026Z,23.40
2018-07-31T23:15:17.422Z,23.30
2018-07-31T23:17:46.135Z,23.20
2018-07-31T23:22:46.111Z,23.10
2018-07-31T23:25:14.827Z,23.00
2018-07-31T23:30:11.382Z,23.00
2018-07-31T23:32:40.252Z,23.00
2018-07-31T23:35:08.899Z,23.00
2018-07-31T23:37:37.333Z,23.00
2018-07-31T23:42:39.670Z,22.90
2018-07-31T23:45:08.158Z,22.80
2018-07-31T23:47:36.756Z,22.80
2018-07-31T23:50:05.268Z,22.70
2018-07-31T23:52:37.335Z,22.70
2018-07-31T23:55:05.821Z,22.70
2018-07-31T23:57:34.160Z,22.60
